Poulsbo, WA

5:40 AM PST on February 06, 2016 (GMT -0800)
Central Market Poulsbo | | Change Station
CLOSE
Current Station
Personal Weather Station
Location: Poulsbo, WA
Elevation: 68 ft
Nearby Weather Stations

Elev 68 ft 47.75 °N, 122.64 °W | Updated 3 seconds ago

Overcast
Overcast
37.9 °F
Feels Like 38 °F
N
0.0
Wind Variable Wind from WSW
Gusts 0.0 mph

Today
High -- | Low -- °F
--% Chance of Precip.
Yesterday
High -- | Low -- °F
Precip. -- in
Pressure 30.40 in
Visibility 10.0 miles
Clouds Mostly Cloudy 1000 ft
Windchill 38 °F
Dew Point 36 °F
Humidity 94%
Rainfall 0.00 in
Snow Depth Not available.
7:31 AM 5:18 PM
Waning Crescent, 5% visible
METAR KPWT 061335Z AUTO 18011G18KT 10SM BKN010 04/03 A3040 RMK AO1
Pressure 30.40 in
Visibility 10.0 miles
Clouds Mostly Cloudy 1000 ft
Windchill 38 °F
Dew Point 36 °F
Humidity 94%
Rainfall 0.00 in
Snow Depth Not available.
7:31 AM 5:18 PM
Waning Crescent, 5% visible
METAR KPWT 061335Z AUTO 18011G18KT 10SM BKN010 04/03 A3040 RMK AO1

10-Day Weather Forecast

Almanac

Astronomy

Feb. 06, 2016 Rise Set
Actual Time
Civil Twilight
Nautical Twilight
Astronomical Twilight
Moon
Length of Visible Light
Length of Day
Tomorrow will be .
, % of the Moon is Illuminated

Today's Extremes

State Highs State Lows

Community

WunderPhotos

Upload Photos

1,890,971 photos uploaded!

WunderBlog® & News

Nearby

Air Quality

  Air Quality AQ Index Pollutant
Not available.

Snow Depth

Station Depth Elevation

Earthquake Activity

City Distance Mag. Time & Date
Minimum magnitude displayed is 2.5.

Coastal Water Temperatures

Place Temperature

Stations

Nearby Weather Stations

Station Location Temp. Windchill Dew Point Humidity Wind Precip. Elev Updated Type
                   

Watches & Warnings

There are currently no watches in effect.